EDW76A HTKJ-HTZA
Flight info
| Callsign | EDW76A |
|---|---|
| Flight time | 0h 48m |
| Altitude | 27000 |
| Route | OKNUL2D OKNUL DCT GEREN DCT UDNUR DCT |
| Aircraft | A359/H-SDE2E3GHIJ3J4J5LM1ORWXY/LB1D1 |
Departure
| Time | 2026-05-06 15:32 |
|---|---|
| Airport | Kilimanjaro International Airport (HTKJ) |
Arrival
| Time | 2026-05-06 16:20 |
|---|---|
| Airport | Abeid Amani Karume International Airport (HTZA) |
| Time | Latitude | Longitude | Altitude | Speed | Heading |
|---|---|---|---|---|---|
| 2026-05-06 15:14 | -3.42594 | 37.06519 | 2932 ft | 0 kts | 87° |
| 2026-05-06 15:27 | -3.42593 | 37.06542 | 2942 ft | 7 kts | 88° |
| 2026-05-06 15:27 | -3.42616 | 37.06580 | 2934 ft | 7 kts | 151° |
| 2026-05-06 15:27 | -3.42667 | 37.06594 | 2937 ft | 9 kts | 176° |
| 2026-05-06 15:27 | -3.42718 | 37.06567 | 2931 ft | 9 kts | 240° |
| 2026-05-06 15:28 | -3.42727 | 37.06497 | 2943 ft | 11 kts | 268° |
| 2026-05-06 15:28 | -3.42731 | 37.06411 | 2943 ft | 14 kts | 267° |
| 2026-05-06 15:28 | -3.42736 | 37.06309 | 2943 ft | 16 kts | 267° |
| 2026-05-06 15:28 | -3.42742 | 37.06191 | 2935 ft | 18 kts | 267° |
| 2026-05-06 15:29 | -3.42748 | 37.06057 | 2942 ft | 20 kts | 267° |
| 2026-05-06 15:29 | -3.42752 | 37.05978 | 2934 ft | 9 kts | 267° |
| 2026-05-06 15:29 | -3.42763 | 37.05904 | 2938 ft | 12 kts | 250° |
| 2026-05-06 15:29 | -3.42827 | 37.05849 | 2932 ft | 13 kts | 193° |
| 2026-05-06 15:30 | -3.42885 | 37.05845 | 2934 ft | 3 kts | 180° |
| 2026-05-06 15:30 | -3.42919 | 37.05845 | 2934 ft | 7 kts | 180° |
| 2026-05-06 15:30 | -3.42975 | 37.05853 | 2931 ft | 9 kts | 156° |
| 2026-05-06 15:30 | -3.43008 | 37.05912 | 2933 ft | 11 kts | 97° |
| 2026-05-06 15:31 | -3.43007 | 37.05996 | 2935 ft | 18 kts | 88° |
| 2026-05-06 15:31 | -3.42991 | 37.06363 | 2939 ft | 87 kts | 87° |
| 2026-05-06 15:31 | -3.42954 | 37.07182 | 2942 ft | 147 kts | 89° |
| 2026-05-06 15:32 | -3.42877 | 37.09434 | 4112 ft | 164 kts | 88° |
| 2026-05-06 15:32 | -3.42842 | 37.10652 | 4498 ft | 187 kts | 89° |
| 2026-05-06 15:32 | -3.42801 | 37.12048 | 4805 ft | 214 kts | 89° |
| 2026-05-06 15:32 | -3.42753 | 37.13617 | 5150 ft | 240 kts | 89° |
| 2026-05-06 15:33 | -3.42762 | 37.15368 | 5510 ft | 261 kts | 99° |
| 2026-05-06 15:33 | -3.43579 | 37.16978 | 6228 ft | 265 kts | 134° |
| 2026-05-06 15:33 | -3.44962 | 37.18213 | 7045 ft | 268 kts | 140° |
| 2026-05-06 15:33 | -3.46393 | 37.19442 | 7833 ft | 274 kts | 139° |
| 2026-05-06 15:34 | -3.47792 | 37.20723 | 8674 ft | 279 kts | 137° |
| 2026-05-06 15:34 | -3.49212 | 37.22083 | 9522 ft | 285 kts | 136° |
| 2026-05-06 15:34 | -3.50655 | 37.23500 | 10273 ft | 295 kts | 135° |
| 2026-05-06 15:34 | -3.52169 | 37.25006 | 10651 ft | 318 kts | 135° |
| 2026-05-06 15:35 | -3.53783 | 37.26625 | 11027 ft | 337 kts | 135° |
| 2026-05-06 15:35 | -3.55456 | 37.28310 | 11689 ft | 345 kts | 135° |
| 2026-05-06 15:35 | -3.57158 | 37.30028 | 12402 ft | 352 kts | 135° |
| 2026-05-06 15:35 | -3.58901 | 37.31789 | 13157 ft | 357 kts | 134° |
| 2026-05-06 15:36 | -3.60657 | 37.33564 | 13905 ft | 362 kts | 134° |
| 2026-05-06 15:36 | -3.62418 | 37.35345 | 14570 ft | 366 kts | 134° |
| 2026-05-06 15:36 | -3.64221 | 37.37167 | 15226 ft | 370 kts | 134° |
| 2026-05-06 15:36 | -3.65998 | 37.38965 | 15780 ft | 378 kts | 134° |
| 2026-05-06 15:37 | -3.67860 | 37.40845 | 16417 ft | 382 kts | 134° |
| 2026-05-06 15:37 | -3.69884 | 37.42588 | 17069 ft | 387 kts | 144° |
| 2026-05-06 15:37 | -3.72228 | 37.43852 | 17718 ft | 390 kts | 156° |
| 2026-05-06 15:37 | -3.74757 | 37.44894 | 18349 ft | 394 kts | 158° |
| 2026-05-06 15:38 | -3.77313 | 37.45907 | 18922 ft | 396 kts | 157° |
| 2026-05-06 15:38 | -3.79889 | 37.46932 | 19528 ft | 398 kts | 157° |
| 2026-05-06 15:38 | -3.82472 | 37.47964 | 20140 ft | 400 kts | 157° |
| 2026-05-06 15:38 | -3.85065 | 37.49004 | 20744 ft | 403 kts | 157° |
| 2026-05-06 15:39 | -3.87670 | 37.50051 | 21380 ft | 404 kts | 156° |
| 2026-05-06 15:39 | -3.90290 | 37.51106 | 21965 ft | 407 kts | 156° |
| 2026-05-06 15:39 | -3.92928 | 37.52168 | 22570 ft | 410 kts | 156° |
| 2026-05-06 15:39 | -3.95585 | 37.53238 | 23162 ft | 413 kts | 156° |
| 2026-05-06 15:40 | -3.98266 | 37.54318 | 23687 ft | 416 kts | 156° |
| 2026-05-06 15:40 | -4.00965 | 37.55405 | 24162 ft | 420 kts | 156° |
| 2026-05-06 15:40 | -4.03688 | 37.56502 | 24627 ft | 424 kts | 156° |
| 2026-05-06 15:40 | -4.06434 | 37.57609 | 25110 ft | 427 kts | 156° |
| 2026-05-06 15:41 | -4.09167 | 37.58711 | 25611 ft | 431 kts | 156° |
| 2026-05-06 15:41 | -4.11960 | 37.59836 | 26114 ft | 435 kts | 156° |
| 2026-05-06 15:41 | -4.14778 | 37.60972 | 26593 ft | 439 kts | 157° |
| 2026-05-06 15:41 | -4.17625 | 37.62119 | 26905 ft | 440 kts | 157° |
| 2026-05-06 15:42 | -4.20434 | 37.63250 | 26976 ft | 427 kts | 156° |
| 2026-05-06 15:42 | -4.23132 | 37.64365 | 26984 ft | 410 kts | 153° |
| 2026-05-06 15:42 | -4.25528 | 37.65815 | 27004 ft | 398 kts | 139° |
| 2026-05-06 15:42 | -4.27620 | 37.67622 | 26979 ft | 397 kts | 135° |
| 2026-05-06 15:43 | -4.29613 | 37.69539 | 26979 ft | 398 kts | 134° |
| 2026-05-06 15:43 | -4.31561 | 37.71508 | 26979 ft | 398 kts | 133° |
| 2026-05-06 15:43 | -4.33499 | 37.73493 | 26977 ft | 398 kts | 133° |
| 2026-05-06 15:43 | -4.35441 | 37.75475 | 26979 ft | 399 kts | 133° |
| 2026-05-06 15:44 | -4.37396 | 37.77452 | 26982 ft | 398 kts | 133° |
| 2026-05-06 15:44 | -4.39327 | 37.79389 | 26983 ft | 398 kts | 134° |
| 2026-05-06 15:44 | -4.41289 | 37.81343 | 26980 ft | 398 kts | 134° |
| 2026-05-06 15:44 | -4.43255 | 37.83295 | 26979 ft | 398 kts | 134° |
| 2026-05-06 15:45 | -4.45222 | 37.85244 | 26978 ft | 398 kts | 133° |
| 2026-05-06 15:45 | -4.47187 | 37.87192 | 26980 ft | 397 kts | 133° |
| 2026-05-06 15:45 | -4.49152 | 37.89140 | 26979 ft | 397 kts | 134° |
| 2026-05-06 15:45 | -4.51117 | 37.91089 | 26982 ft | 398 kts | 134° |
| 2026-05-06 15:46 | -4.53082 | 37.93039 | 26979 ft | 398 kts | 134° |
| 2026-05-06 15:46 | -4.55049 | 37.94991 | 26978 ft | 396 kts | 133° |
| 2026-05-06 15:46 | -4.57005 | 37.96933 | 26983 ft | 396 kts | 134° |
| 2026-05-06 15:46 | -4.58964 | 37.98878 | 26983 ft | 397 kts | 134° |
| 2026-05-06 15:47 | -4.60899 | 38.00799 | 26984 ft | 397 kts | 133° |
| 2026-05-06 15:47 | -4.62865 | 38.02751 | 26984 ft | 397 kts | 134° |
| 2026-05-06 15:47 | -4.64826 | 38.04699 | 26986 ft | 397 kts | 133° |
| 2026-05-06 15:47 | -4.66787 | 38.06646 | 26985 ft | 396 kts | 134° |
| 2026-05-06 15:48 | -4.68750 | 38.08596 | 26987 ft | 397 kts | 134° |
| 2026-05-06 15:48 | -4.70711 | 38.10543 | 26990 ft | 397 kts | 134° |
| 2026-05-06 15:48 | -4.72670 | 38.12490 | 26990 ft | 397 kts | 133° |
| 2026-05-06 15:48 | -4.74629 | 38.14436 | 26990 ft | 396 kts | 133° |
| 2026-05-06 15:49 | -4.76590 | 38.16384 | 26990 ft | 396 kts | 133° |
| 2026-05-06 15:49 | -4.78548 | 38.18329 | 26991 ft | 396 kts | 134° |
| 2026-05-06 15:49 | -4.80481 | 38.20250 | 26993 ft | 397 kts | 133° |
| 2026-05-06 15:49 | -4.82439 | 38.22197 | 26993 ft | 396 kts | 133° |
| 2026-05-06 15:50 | -4.84396 | 38.24141 | 26992 ft | 396 kts | 134° |
| 2026-05-06 15:50 | -4.86352 | 38.26086 | 26994 ft | 396 kts | 134° |
| 2026-05-06 15:50 | -4.88314 | 38.28036 | 26993 ft | 396 kts | 134° |
| 2026-05-06 15:50 | -4.90273 | 38.29984 | 26992 ft | 397 kts | 133° |
| 2026-05-06 15:51 | -4.92232 | 38.31930 | 26991 ft | 396 kts | 133° |
| 2026-05-06 15:51 | -4.94186 | 38.33876 | 26988 ft | 396 kts | 133° |
| 2026-05-06 15:51 | -4.96140 | 38.35822 | 26991 ft | 396 kts | 134° |
| 2026-05-06 15:51 | -4.98097 | 38.37768 | 26991 ft | 396 kts | 133° |
| 2026-05-06 15:52 | -5.00054 | 38.39713 | 26986 ft | 396 kts | 134° |
| 2026-05-06 15:52 | -5.02013 | 38.41662 | 26979 ft | 396 kts | 133° |
| 2026-05-06 15:52 | -5.03968 | 38.43606 | 26979 ft | 396 kts | 133° |
| 2026-05-06 15:52 | -5.05963 | 38.45516 | 26977 ft | 397 kts | 139° |
| 2026-05-06 15:53 | -5.08190 | 38.47154 | 26980 ft | 397 kts | 144° |
| 2026-05-06 15:53 | -5.10482 | 38.48710 | 26973 ft | 398 kts | 144° |
| 2026-05-06 15:53 | -5.12786 | 38.50250 | 26968 ft | 398 kts | 145° |
| 2026-05-06 15:53 | -5.15099 | 38.51788 | 26968 ft | 398 kts | 145° |
| 2026-05-06 15:54 | -5.17373 | 38.53295 | 26968 ft | 398 kts | 145° |
| 2026-05-06 15:54 | -5.19684 | 38.54825 | 26968 ft | 398 kts | 144° |
| 2026-05-06 15:54 | -5.21992 | 38.56352 | 26969 ft | 397 kts | 144° |
| 2026-05-06 15:54 | -5.24300 | 38.57879 | 26963 ft | 397 kts | 144° |
| 2026-05-06 15:55 | -5.26606 | 38.59405 | 26965 ft | 397 kts | 144° |
| 2026-05-06 15:55 | -5.28906 | 38.60926 | 26966 ft | 397 kts | 144° |
| 2026-05-06 15:55 | -5.31217 | 38.62454 | 26966 ft | 397 kts | 144° |
| 2026-05-06 15:55 | -5.33522 | 38.63979 | 26967 ft | 397 kts | 144° |
| 2026-05-06 15:56 | -5.35833 | 38.65507 | 26964 ft | 397 kts | 144° |
| 2026-05-06 15:56 | -5.38138 | 38.67032 | 26954 ft | 397 kts | 145° |
| 2026-05-06 15:56 | -5.40446 | 38.68559 | 26954 ft | 396 kts | 145° |
| 2026-05-06 15:56 | -5.42749 | 38.70082 | 26955 ft | 396 kts | 145° |
| 2026-05-06 15:57 | -5.45020 | 38.71585 | 26955 ft | 396 kts | 145° |
| 2026-05-06 15:57 | -5.47322 | 38.73108 | 26952 ft | 396 kts | 145° |
| 2026-05-06 15:57 | -5.49623 | 38.74632 | 26952 ft | 396 kts | 145° |
| 2026-05-06 15:57 | -5.51926 | 38.76155 | 26944 ft | 396 kts | 145° |
| 2026-05-06 15:58 | -5.54238 | 38.77686 | 26942 ft | 396 kts | 145° |
| 2026-05-06 15:58 | -5.56541 | 38.79210 | 26942 ft | 397 kts | 145° |
| 2026-05-06 15:58 | -5.58844 | 38.80735 | 26941 ft | 396 kts | 145° |
| 2026-05-06 15:58 | -5.61147 | 38.82259 | 26941 ft | 396 kts | 145° |
| 2026-05-06 15:59 | -5.63449 | 38.83784 | 26944 ft | 396 kts | 145° |
| 2026-05-06 15:59 | -5.65755 | 38.85311 | 26938 ft | 396 kts | 145° |
| 2026-05-06 15:59 | -5.68056 | 38.86835 | 26939 ft | 396 kts | 145° |
| 2026-05-06 15:59 | -5.70356 | 38.88358 | 26939 ft | 396 kts | 145° |
| 2026-05-06 16:00 | -5.72656 | 38.89881 | 26937 ft | 396 kts | 145° |
| 2026-05-06 16:00 | -5.74952 | 38.91402 | 26937 ft | 395 kts | 144° |
| 2026-05-06 16:00 | -5.77243 | 38.92920 | 26935 ft | 394 kts | 145° |
| 2026-05-06 16:00 | -5.79538 | 38.94441 | 26949 ft | 395 kts | 145° |
| 2026-05-06 16:01 | -5.81795 | 38.95937 | 26931 ft | 395 kts | 145° |
| 2026-05-06 16:01 | -5.84091 | 38.97459 | 26946 ft | 396 kts | 145° |
| 2026-05-06 16:01 | -5.86390 | 38.98982 | 26932 ft | 396 kts | 145° |
| 2026-05-06 16:01 | -5.88689 | 39.00506 | 26932 ft | 396 kts | 145° |
| 2026-05-06 16:02 | -5.90987 | 39.02030 | 26935 ft | 395 kts | 145° |
| 2026-05-06 16:02 | -5.93261 | 39.03537 | 26949 ft | 386 kts | 145° |
| 2026-05-06 16:02 | -5.95516 | 39.05032 | 26930 ft | 390 kts | 145° |
| 2026-05-06 16:02 | -5.97793 | 39.06543 | 26931 ft | 392 kts | 145° |
| 2026-05-06 16:03 | -6.00046 | 39.08036 | 26721 ft | 384 kts | 145° |
| 2026-05-06 16:03 | -6.02255 | 39.09516 | 26385 ft | 378 kts | 142° |
| 2026-05-06 16:03 | -6.03965 | 39.11398 | 26147 ft | 365 kts | 119° |
| 2026-05-06 16:03 | -6.04800 | 39.13747 | 25940 ft | 355 kts | 97° |
| 2026-05-06 16:04 | -6.04634 | 39.16176 | 25696 ft | 346 kts | 74° |
| 2026-05-06 16:04 | -6.03934 | 39.18454 | 25544 ft | 337 kts | 73° |
| 2026-05-06 16:04 | -6.03343 | 39.20715 | 25352 ft | 329 kts | 79° |
| 2026-05-06 16:04 | -6.03224 | 39.22990 | 25030 ft | 325 kts | 97° |
| 2026-05-06 16:05 | -6.03570 | 39.24440 | 24805 ft | 323 kts | 110° |
| 2026-05-06 16:05 | -6.05214 | 39.26888 | 24359 ft | 321 kts | 137° |
| 2026-05-06 16:05 | -6.07109 | 39.28077 | 23932 ft | 325 kts | 157° |
| 2026-05-06 16:05 | -6.09327 | 39.28560 | 23498 ft | 329 kts | 176° |
| 2026-05-06 16:06 | -6.10877 | 39.28441 | 23150 ft | 333 kts | 190° |
| 2026-05-06 16:06 | -6.13032 | 39.27591 | 22641 ft | 337 kts | 211° |
| 2026-05-06 16:06 | -6.14768 | 39.26014 | 22138 ft | 340 kts | 232° |
| 2026-05-06 16:06 | -6.15841 | 39.23904 | 21638 ft | 342 kts | 253° |
| 2026-05-06 16:07 | -6.16197 | 39.21543 | 21153 ft | 343 kts | 266° |
| 2026-05-06 16:07 | -6.16330 | 39.19147 | 20608 ft | 342 kts | 266° |
| 2026-05-06 16:07 | -6.16458 | 39.16811 | 20038 ft | 335 kts | 269° |
| 2026-05-06 16:07 | -6.16380 | 39.14498 | 19471 ft | 328 kts | 275° |
| 2026-05-06 16:08 | -6.16035 | 39.12260 | 18900 ft | 320 kts | 287° |
| 2026-05-06 16:08 | -6.15058 | 39.10293 | 18343 ft | 312 kts | 308° |
| 2026-05-06 16:08 | -6.13569 | 39.08758 | 17761 ft | 304 kts | 324° |
| 2026-05-06 16:08 | -6.11721 | 39.07787 | 17117 ft | 297 kts | 343° |
| 2026-05-06 16:09 | -6.09707 | 39.07472 | 16503 ft | 292 kts | 1° |
| 2026-05-06 16:09 | -6.07731 | 39.07804 | 15900 ft | 287 kts | 19° |
| 2026-05-06 16:09 | -6.05974 | 39.08708 | 15252 ft | 285 kts | 37° |
| 2026-05-06 16:09 | -6.04594 | 39.10129 | 14572 ft | 286 kts | 56° |
| 2026-05-06 16:10 | -6.03802 | 39.11951 | 13904 ft | 286 kts | 77° |
| 2026-05-06 16:10 | -6.03514 | 39.13936 | 13168 ft | 287 kts | 84° |
| 2026-05-06 16:10 | -6.03318 | 39.15930 | 12419 ft | 287 kts | 84° |
| 2026-05-06 16:10 | -6.03111 | 39.17921 | 11696 ft | 287 kts | 84° |
| 2026-05-06 16:11 | -6.02892 | 39.19911 | 10982 ft | 286 kts | 84° |
| 2026-05-06 16:11 | -6.02674 | 39.21870 | 10282 ft | 285 kts | 84° |
| 2026-05-06 16:11 | -6.02440 | 39.23847 | 9583 ft | 284 kts | 83° |
| 2026-05-06 16:11 | -6.02096 | 39.25797 | 8841 ft | 283 kts | 79° |
| 2026-05-06 16:12 | -6.01650 | 39.27714 | 8200 ft | 278 kts | 78° |
| 2026-05-06 16:12 | -6.01114 | 39.29541 | 7710 ft | 268 kts | 66° |
| 2026-05-06 16:12 | -6.00001 | 39.31006 | 7258 ft | 261 kts | 45° |
| 2026-05-06 16:12 | -5.98552 | 39.32146 | 7117 ft | 272 kts | 32° |
| 2026-05-06 16:13 | -5.96760 | 39.32799 | 7106 ft | 279 kts | 7° |
| 2026-05-06 16:13 | -5.94849 | 39.32512 | 7110 ft | 283 kts | 335° |
| 2026-05-06 16:13 | -5.93378 | 39.31250 | 7107 ft | 280 kts | 302° |
| 2026-05-06 16:13 | -5.92750 | 39.29440 | 6757 ft | 275 kts | 271° |
| 2026-05-06 16:14 | -5.93164 | 39.27597 | 6238 ft | 273 kts | 238° |
| 2026-05-06 16:14 | -5.94475 | 39.26291 | 5796 ft | 268 kts | 209° |
| 2026-05-06 16:14 | -5.96048 | 39.25356 | 5598 ft | 255 kts | 208° |
| 2026-05-06 16:14 | -5.97502 | 39.24442 | 5283 ft | 241 kts | 211° |
| 2026-05-06 16:15 | -5.98872 | 39.23505 | 4798 ft | 236 kts | 213° |
| 2026-05-06 16:15 | -6.00195 | 39.22542 | 4298 ft | 233 kts | 214° |
| 2026-05-06 16:15 | -6.01476 | 39.21575 | 3913 ft | 227 kts | 214° |
| 2026-05-06 16:15 | -6.02816 | 39.20856 | 3558 ft | 213 kts | 194° |
| 2026-05-06 16:16 | -6.04251 | 39.20659 | 3266 ft | 207 kts | 174° |
| 2026-05-06 16:16 | -6.05672 | 39.20835 | 2998 ft | 205 kts | 169° |
| 2026-05-06 16:16 | -6.07084 | 39.20992 | 2730 ft | 200 kts | 173° |
| 2026-05-06 16:16 | -6.08419 | 39.21107 | 2456 ft | 186 kts | 173° |
| 2026-05-06 16:17 | -6.09664 | 39.21233 | 2243 ft | 173 kts | 172° |
| 2026-05-06 16:17 | -6.10804 | 39.21348 | 2031 ft | 164 kts | 171° |
| 2026-05-06 16:17 | -6.11894 | 39.21456 | 1826 ft | 152 kts | 171° |
| 2026-05-06 16:17 | -6.12929 | 39.21561 | 1640 ft | 149 kts | 172° |
| 2026-05-06 16:18 | -6.13958 | 39.21664 | 1425 ft | 148 kts | 172° |
| 2026-05-06 16:18 | -6.14972 | 39.21765 | 1240 ft | 143 kts | 172° |
| 2026-05-06 16:18 | -6.15932 | 39.21861 | 1061 ft | 134 kts | 171° |
| 2026-05-06 16:18 | -6.16845 | 39.21952 | 901 ft | 129 kts | 171° |
| 2026-05-06 16:19 | -6.17721 | 39.22040 | 740 ft | 127 kts | 172° |
| 2026-05-06 16:19 | -6.18605 | 39.22129 | 581 ft | 128 kts | 171° |
| 2026-05-06 16:19 | -6.19510 | 39.22219 | 388 ft | 132 kts | 172° |
| 2026-05-06 16:19 | -6.20423 | 39.22301 | 205 ft | 133 kts | 171° |
| 2026-05-06 16:20 | -6.21347 | 39.22413 | 66 ft | 131 kts | 176° |
| 2026-05-06 16:20 | -6.22108 | 39.22484 | 57 ft | 91 kts | 175° |
| 2026-05-06 16:20 | -6.22607 | 39.22532 | 57 ft | 53 kts | 174° |
| 2026-05-06 16:20 | -6.22848 | 39.22556 | 58 ft | 24 kts | 174° |
| 2026-05-06 16:21 | -6.22951 | 39.22557 | 57 ft | 14 kts | 203° |
| 2026-05-06 16:21 | -6.22998 | 39.22469 | 56 ft | 16 kts | 267° |
| 2026-05-06 16:21 | -6.22932 | 39.22392 | 54 ft | 16 kts | 349° |
| 2026-05-06 16:21 | -6.22814 | 39.22379 | 56 ft | 18 kts | 354° |
| 2026-05-06 16:22 | -6.22678 | 39.22366 | 60 ft | 21 kts | 355° |
| 2026-05-06 16:22 | -6.22552 | 39.22355 | 55 ft | 14 kts | 353° |
| 2026-05-06 16:22 | -6.22457 | 39.22328 | 55 ft | 14 kts | 319° |
| 2026-05-06 16:22 | -6.22404 | 39.22261 | 64 ft | 9 kts | 345° |
| 2026-05-06 16:23 | -6.22361 | 39.22254 | 58 ft | 8 kts | 352° |
| 2026-05-06 16:23 | -6.22344 | 39.22252 | 62 ft | 0 kts | 353° |